Terminal Aerodrome Forecast
Issued by NWS

Home | Current Version | Previous Version | Text Only | Print | Product List | Glossary On
Versions: 1 2 3 4 5 6 7 8 9 10 11 12 13 14 15 16 17 18 19 20 21 22 23
000
FTUS45 KGJT 042324
TAFTEX
TAF
KTEX 042324Z 0500/0524 25005KT P6SM BKN150
     FM050200 13005KT P6SM SCT150
     FM051500 VRB03KT P6SM SKC
     FM051900 22010G18KT P6SM SCT250=

USA.gov is the U.S. government's official web portal to all federal, state and local government web resources and services.